Terminal Aerodrome Forecast
Issued by NWS

Home | Current Version | Previous Version | Text Only | Print | Product List | Glossary On
Versions: 1 2 3 4 5 6 7 8 9 10 11 12 13
000
FTUS45 KGGW 221134
TAFGDV
TAF
KGDV 221134Z 2212/2312 24007KT 6SM BR BKN005
     FM221500 24007KT 4SM BR BKN010
     FM221700 25008KT P6SM BKN020
     FM221900 26009KT P6SM SCT050
     FM230600 VRB03KT P6SM BKN040=

USA.gov is the U.S. government's official web portal to all federal, state and local government web resources and services.